sensor_id;sensor_type;location;lat;lon;timestamp;P1;durP1;ratioP1;P2;durP2;ratioP2
60239;SDS011;46102;39.012;-7.064;2023-04-25T00:00:58;3.83;;;1.55;;
60239;SDS011;46102;39.012;-7.064;2023-04-25T00:02:59;4.45;;;1.98;;
60239;SDS011;46102;39.012;-7.064;2023-04-25T00:05:00;4.32;;;1.65;;
60239;SDS011;46102;39.012;-7.064;2023-04-25T00:07:02;3.50;;;1.60;;
60239;SDS011;46102;39.012;-7.064;2023-04-25T00:09:03;2.75;;;1.77;;
60239;SDS011;46102;39.012;-7.064;2023-04-25T00:11:07;4.65;;;1.85;;
60239;SDS011;46102;39.012;-7.064;2023-04-25T00:13:08;2.58;;;1.80;;
60239;SDS011;46102;39.012;-7.064;2023-04-25T00:15:11;3.67;;;1.40;;
60239;SDS011;46102;39.012;-7.064;2023-04-25T00:17:12;2.92;;;1.67;;
60239;SDS011;46102;39.012;-7.064;2023-04-25T00:19:13;4.47;;;2.28;;
60239;SDS011;46102;39.012;-7.064;2023-04-25T00:21:14;2.20;;;1.92;;
60239;SDS011;46102;39.012;-7.064;2023-04-25T00:23:16;2.40;;;2.20;;
60239;SDS011;46102;39.012;-7.064;2023-04-25T00:25:20;1.80;;;1.65;;
60239;SDS011;46102;39.012;-7.064;2023-04-25T00:27:21;4.05;;;1.63;;
60239;SDS011;46102;39.012;-7.064;2023-04-25T00:29:21;6.78;;;1.85;;
60239;SDS011;46102;39.012;-7.064;2023-04-25T00:31:22;2.75;;;1.70;;
60239;SDS011;46102;39.012;-7.064;2023-04-25T00:33:23;1.77;;;1.63;;
60239;SDS011;46102;39.012;-7.064;2023-04-25T00:35:24;3.92;;;1.80;;
60239;SDS011;46102;39.012;-7.064;2023-04-25T00:37:25;1.63;;;1.52;;
60239;SDS011;46102;39.012;-7.064;2023-04-25T00:39:26;8.07;;;1.85;;
60239;SDS011;46102;39.012;-7.064;2023-04-25T00:41:26;3.55;;;1.73;;
60239;SDS011;46102;39.012;-7.064;2023-04-25T00:43:27;4.47;;;1.90;;
60239;SDS011;46102;39.012;-7.064;2023-04-25T00:45:30;2.25;;;1.40;;
60239;SDS011;46102;39.012;-7.064;2023-04-25T00:47:31;7.65;;;1.70;;
60239;SDS011;46102;39.012;-7.064;2023-04-25T00:49:33;5.65;;;2.00;;
60239;SDS011;46102;39.012;-7.064;2023-04-25T00:51:34;3.20;;;1.80;;
60239;SDS011;46102;39.012;-7.064;2023-04-25T00:53:35;6.30;;;2.22;;
60239;SDS011;46102;39.012;-7.064;2023-04-25T00:55:36;8.45;;;2.05;;
60239;SDS011;46102;39.012;-7.064;2023-04-25T00:57:37;2.38;;;1.73;;
60239;SDS011;46102;39.012;-7.064;2023-04-25T00:59:38;2.17;;;1.98;;
60239;SDS011;46102;39.012;-7.064;2023-04-25T01:01:45;4.85;;;1.60;;
60239;SDS011;46102;39.012;-7.064;2023-04-25T01:03:46;2.78;;;1.92;;
60239;SDS011;46102;39.012;-7.064;2023-04-25T01:05:47;4.15;;;2.05;;
60239;SDS011;46102;39.012;-7.064;2023-04-25T01:07:48;3.15;;;2.05;;
60239;SDS011;46102;39.012;-7.064;2023-04-25T01:09:49;6.35;;;1.92;;
60239;SDS011;46102;39.012;-7.064;2023-04-25T01:11:52;4.80;;;1.77;;
60239;SDS011;46102;39.012;-7.064;2023-04-25T01:13:53;5.32;;;1.58;;
60239;SDS011;46102;39.012;-7.064;2023-04-25T01:15:54;2.75;;;1.85;;
60239;SDS011;46102;39.012;-7.064;2023-04-25T01:17:55;3.70;;;1.67;;
60239;SDS011;46102;39.012;-7.064;2023-04-25T01:19:58;3.83;;;1.77;;
60239;SDS011;46102;39.012;-7.064;2023-04-25T01:21:59;6.45;;;2.03;;
60239;SDS011;46102;39.012;-7.064;2023-04-25T01:24:00;3.00;;;1.95;;
60239;SDS011;46102;39.012;-7.064;2023-04-25T01:26:02;2.08;;;1.67;;
60239;SDS011;46102;39.012;-7.064;2023-04-25T01:28:04;2.92;;;1.55;;
60239;SDS011;46102;39.012;-7.064;2023-04-25T01:30:06;4.72;;;1.88;;
60239;SDS011;46102;39.012;-7.064;2023-04-25T01:32:08;4.00;;;1.73;;
60239;SDS011;46102;39.012;-7.064;2023-04-25T01:34:10;5.05;;;2.10;;
60239;SDS011;46102;39.012;-7.064;2023-04-25T01:36:11;5.45;;;1.90;;
60239;SDS011;46102;39.012;-7.064;2023-04-25T01:38:13;4.85;;;1.88;;
60239;SDS011;46102;39.012;-7.064;2023-04-25T01:40:14;6.60;;;1.90;;
60239;SDS011;46102;39.012;-7.064;2023-04-25T01:42:15;4.95;;;2.00;;
60239;SDS011;46102;39.012;-7.064;2023-04-25T01:44:16;3.28;;;2.22;;
60239;SDS011;46102;39.012;-7.064;2023-04-25T01:46:17;6.32;;;2.60;;
60239;SDS011;46102;39.012;-7.064;2023-04-25T01:48:18;7.70;;;2.30;;
60239;SDS011;46102;39.012;-7.064;2023-04-25T01:50:20;4.40;;;2.15;;
60239;SDS011;46102;39.012;-7.064;2023-04-25T01:52:22;3.58;;;2.38;;
60239;SDS011;46102;39.012;-7.064;2023-04-25T01:54:23;4.28;;;2.55;;
60239;SDS011;46102;39.012;-7.064;2023-04-25T01:56:24;5.53;;;2.55;;
60239;SDS011;46102;39.012;-7.064;2023-04-25T01:58:25;6.90;;;2.70;;
60239;SDS011;46102;39.012;-7.064;2023-04-25T02:00:37;5.18;;;3.15;;
60239;SDS011;46102;39.012;-7.064;2023-04-25T02:02:39;6.82;;;3.25;;
60239;SDS011;46102;39.012;-7.064;2023-04-25T02:04:46;5.40;;;2.88;;
60239;SDS011;46102;39.012;-7.064;2023-04-25T02:06:47;4.55;;;2.50;;
60239;SDS011;46102;39.012;-7.064;2023-04-25T02:08:49;4.75;;;2.33;;
60239;SDS011;46102;39.012;-7.064;2023-04-25T02:10:50;5.70;;;2.78;;
60239;SDS011;46102;39.012;-7.064;2023-04-25T02:12:52;3.72;;;2.53;;
60239;SDS011;46102;39.012;-7.064;2023-04-25T02:15:00;4.07;;;3.05;;
60239;SDS011;46102;39.012;-7.064;2023-04-25T02:17:22;4.32;;;2.22;;
60239;SDS011;46102;39.012;-7.064;2023-04-25T02:19:25;7.22;;;2.75;;
60239;SDS011;46102;39.012;-7.064;2023-04-25T02:21:25;6.68;;;2.45;;
60239;SDS011;46102;39.012;-7.064;2023-04-25T02:23:26;4.85;;;2.83;;
60239;SDS011;46102;39.012;-7.064;2023-04-25T02:25:28;4.30;;;2.17;;
60239;SDS011;46102;39.012;-7.064;2023-04-25T02:27:29;4.53;;;2.00;;
60239;SDS011;46102;39.012;-7.064;2023-04-25T02:29:30;6.40;;;2.55;;
60239;SDS011;46102;39.012;-7.064;2023-04-25T02:31:31;9.75;;;4.57;;
60239;SDS011;46102;39.012;-7.064;2023-04-25T02:33:32;2.85;;;2.35;;
60239;SDS011;46102;39.012;-7.064;2023-04-25T02:35:33;4.90;;;2.30;;
60239;SDS011;46102;39.012;-7.064;2023-04-25T02:37:34;2.53;;;1.85;;
60239;SDS011;46102;39.012;-7.064;2023-04-25T02:39:35;4.15;;;2.35;;
60239;SDS011;46102;39.012;-7.064;2023-04-25T02:41:36;2.08;;;1.73;;
60239;SDS011;46102;39.012;-7.064;2023-04-25T02:43:37;3.67;;;1.90;;
60239;SDS011;46102;39.012;-7.064;2023-04-25T02:45:38;6.82;;;2.53;;
60239;SDS011;46102;39.012;-7.064;2023-04-25T02:47:39;4.93;;;2.47;;
60239;SDS011;46102;39.012;-7.064;2023-04-25T02:49:39;2.60;;;1.80;;
60239;SDS011;46102;39.012;-7.064;2023-04-25T02:51:40;4.15;;;2.22;;
60239;SDS011;46102;39.012;-7.064;2023-04-25T02:53:41;3.63;;;2.55;;
60239;SDS011;46102;39.012;-7.064;2023-04-25T02:55:42;3.88;;;1.80;;
60239;SDS011;46102;39.012;-7.064;2023-04-25T02:57:43;1.98;;;1.85;;
60239;SDS011;46102;39.012;-7.064;2023-04-25T03:01:48;4.53;;;1.50;;
60239;SDS011;46102;39.012;-7.064;2023-04-25T03:03:49;5.75;;;2.40;;
60239;SDS011;46102;39.012;-7.064;2023-04-25T03:05:51;6.97;;;1.77;;
60239;SDS011;46102;39.012;-7.064;2023-04-25T03:07:57;3.85;;;2.10;;
60239;SDS011;46102;39.012;-7.064;2023-04-25T03:10:00;7.47;;;2.35;;
60239;SDS011;46102;39.012;-7.064;2023-04-25T03:12:06;3.10;;;2.00;;
60239;SDS011;46102;39.012;-7.064;2023-04-25T03:14:08;8.48;;;2.65;;
60239;SDS011;46102;39.012;-7.064;2023-04-25T03:16:09;5.38;;;2.30;;
60239;SDS011;46102;39.012;-7.064;2023-04-25T03:18:10;2.83;;;1.90;;
60239;SDS011;46102;39.012;-7.064;2023-04-25T03:20:13;2.40;;;2.28;;
60239;SDS011;46102;39.012;-7.064;2023-04-25T03:22:15;2.95;;;2.10;;
60239;SDS011;46102;39.012;-7.064;2023-04-25T03:24:16;3.00;;;2.38;;
60239;SDS011;46102;39.012;-7.064;2023-04-25T03:26:17;8.07;;;3.55;;
60239;SDS011;46102;39.012;-7.064;2023-04-25T03:28:18;3.72;;;2.15;;
60239;SDS011;46102;39.012;-7.064;2023-04-25T03:30:19;5.15;;;2.40;;
60239;SDS011;46102;39.012;-7.064;2023-04-25T03:32:20;7.95;;;2.47;;
60239;SDS011;46102;39.012;-7.064;2023-04-25T03:34:21;3.47;;;2.10;;
60239;SDS011;46102;39.012;-7.064;2023-04-25T03:36:24;5.28;;;2.22;;
60239;SDS011;46102;39.012;-7.064;2023-04-25T03:38:25;5.47;;;2.13;;
60239;SDS011;46102;39.012;-7.064;2023-04-25T03:40:26;4.18;;;2.13;;
60239;SDS011;46102;39.012;-7.064;2023-04-25T03:42:41;3.65;;;1.73;;
60239;SDS011;46102;39.012;-7.064;2023-04-25T03:44:42;3.88;;;2.47;;
60239;SDS011;46102;39.012;-7.064;2023-04-25T03:46:43;3.47;;;2.00;;
60239;SDS011;46102;39.012;-7.064;2023-04-25T03:48:44;6.53;;;2.92;;
60239;SDS011;46102;39.012;-7.064;2023-04-25T03:50:50;4.35;;;2.30;;
60239;SDS011;46102;39.012;-7.064;2023-04-25T03:52:51;11.82;;;2.28;;
60239;SDS011;46102;39.012;-7.064;2023-04-25T03:54:52;3.60;;;2.20;;
60239;SDS011;46102;39.012;-7.064;2023-04-25T03:56:56;6.63;;;2.67;;
60239;SDS011;46102;39.012;-7.064;2023-04-25T03:59:00;4.28;;;2.15;;
60239;SDS011;46102;39.012;-7.064;2023-04-25T04:01:02;4.88;;;2.50;;
60239;SDS011;46102;39.012;-7.064;2023-04-25T04:03:08;2.60;;;1.90;;
60239;SDS011;46102;39.012;-7.064;2023-04-25T04:05:09;6.57;;;2.17;;
60239;SDS011;46102;39.012;-7.064;2023-04-25T04:07:13;6.13;;;3.45;;
60239;SDS011;46102;39.012;-7.064;2023-04-25T04:09:17;2.30;;;2.10;;
60239;SDS011;46102;39.012;-7.064;2023-04-25T04:11:18;5.55;;;2.70;;
60239;SDS011;46102;39.012;-7.064;2023-04-25T04:13:19;7.15;;;2.10;;
60239;SDS011;46102;39.012;-7.064;2023-04-25T04:15:20;5.57;;;2.47;;
60239;SDS011;46102;39.012;-7.064;2023-04-25T04:17:22;3.83;;;2.13;;
60239;SDS011;46102;39.012;-7.064;2023-04-25T04:19:23;4.65;;;2.20;;
60239;SDS011;46102;39.012;-7.064;2023-04-25T04:21:32;6.15;;;2.33;;
60239;SDS011;46102;39.012;-7.064;2023-04-25T04:23:34;5.20;;;2.45;;
60239;SDS011;46102;39.012;-7.064;2023-04-25T04:25:36;2.97;;;2.55;;
60239;SDS011;46102;39.012;-7.064;2023-04-25T04:27:42;7.63;;;2.40;;
60239;SDS011;46102;39.012;-7.064;2023-04-25T04:29:57;2.58;;;2.38;;
60239;SDS011;46102;39.012;-7.064;2023-04-25T04:32:07;4.53;;;2.55;;
60239;SDS011;46102;39.012;-7.064;2023-04-25T04:34:10;3.40;;;2.20;;
60239;SDS011;46102;39.012;-7.064;2023-04-25T04:36:11;5.10;;;2.60;;
60239;SDS011;46102;39.012;-7.064;2023-04-25T04:38:13;4.97;;;2.50;;
60239;SDS011;46102;39.012;-7.064;2023-04-25T04:40:15;5.70;;;3.45;;
60239;SDS011;46102;39.012;-7.064;2023-04-25T04:42:24;3.90;;;2.38;;
60239;SDS011;46102;39.012;-7.064;2023-04-25T04:44:35;14.52;;;3.63;;
60239;SDS011;46102;39.012;-7.064;2023-04-25T04:46:57;7.85;;;3.65;;
60239;SDS011;46102;39.012;-7.064;2023-04-25T04:49:27;8.23;;;2.92;;
60239;SDS011;46102;39.012;-7.064;2023-04-25T04:51:42;4.00;;;2.55;;
60239;SDS011;46102;39.012;-7.064;2023-04-25T04:54:10;3.95;;;2.20;;
60239;SDS011;46102;39.012;-7.064;2023-04-25T04:56:35;7.18;;;3.10;;
60239;SDS011;46102;39.012;-7.064;2023-04-25T04:58:55;6.07;;;2.78;;
60239;SDS011;46102;39.012;-7.064;2023-04-25T05:01:14;5.93;;;2.55;;
60239;SDS011;46102;39.012;-7.064;2023-04-25T05:03:35;5.68;;;2.58;;
60239;SDS011;46102;39.012;-7.064;2023-04-25T05:05:43;7.32;;;3.65;;
60239;SDS011;46102;39.012;-7.064;2023-04-25T05:08:03;6.03;;;2.45;;
60239;SDS011;46102;39.012;-7.064;2023-04-25T05:10:16;5.28;;;3.25;;
60239;SDS011;46102;39.012;-7.064;2023-04-25T05:12:30;3.78;;;2.78;;
60239;SDS011;46102;39.012;-7.064;2023-04-25T05:14:45;5.07;;;3.17;;
60239;SDS011;46102;39.012;-7.064;2023-04-25T05:17:16;5.55;;;2.25;;
60239;SDS011;46102;39.012;-7.064;2023-04-25T05:19:35;6.93;;;4.60;;
60239;SDS011;46102;39.012;-7.064;2023-04-25T05:22:05;6.18;;;2.63;;
60239;SDS011;46102;39.012;-7.064;2023-04-25T05:24:15;5.35;;;2.95;;
60239;SDS011;46102;39.012;-7.064;2023-04-25T05:26:35;4.85;;;2.63;;
60239;SDS011;46102;39.012;-7.064;2023-04-25T05:29:02;3.03;;;2.72;;
60239;SDS011;46102;39.012;-7.064;2023-04-25T05:31:09;4.05;;;2.75;;
60239;SDS011;46102;39.012;-7.064;2023-04-25T05:33:19;6.72;;;2.80;;
60239;SDS011;46102;39.012;-7.064;2023-04-25T05:35:20;5.15;;;2.55;;
60239;SDS011;46102;39.012;-7.064;2023-04-25T05:37:22;3.35;;;2.60;;
60239;SDS011;46102;39.012;-7.064;2023-04-25T05:39:29;10.95;;;2.85;;
60239;SDS011;46102;39.012;-7.064;2023-04-25T05:41:48;5.30;;;2.53;;
60239;SDS011;46102;39.012;-7.064;2023-04-25T05:44:12;7.63;;;3.30;;
60239;SDS011;46102;39.012;-7.064;2023-04-25T05:46:18;5.13;;;2.60;;
60239;SDS011;46102;39.012;-7.064;2023-04-25T05:48:46;8.77;;;3.10;;
60239;SDS011;46102;39.012;-7.064;2023-04-25T05:51:03;7.60;;;2.65;;
60239;SDS011;46102;39.012;-7.064;2023-04-25T05:53:20;5.20;;;3.53;;
60239;SDS011;46102;39.012;-7.064;2023-04-25T05:55:28;6.07;;;2.83;;
60239;SDS011;46102;39.012;-7.064;2023-04-25T05:57:29;5.40;;;2.95;;
60239;SDS011;46102;39.012;-7.064;2023-04-25T05:59:31;9.27;;;3.35;;
60239;SDS011;46102;39.012;-7.064;2023-04-25T06:01:32;8.60;;;2.67;;
60239;SDS011;46102;39.012;-7.064;2023-04-25T06:03:33;5.10;;;2.88;;
60239;SDS011;46102;39.012;-7.064;2023-04-25T06:05:34;6.88;;;3.50;;
60239;SDS011;46102;39.012;-7.064;2023-04-25T06:07:34;7.72;;;2.95;;
60239;SDS011;46102;39.012;-7.064;2023-04-25T06:09:37;6.32;;;2.72;;
60239;SDS011;46102;39.012;-7.064;2023-04-25T06:11:39;11.65;;;3.13;;
60239;SDS011;46102;39.012;-7.064;2023-04-25T06:13:40;8.00;;;2.58;;
60239;SDS011;46102;39.012;-7.064;2023-04-25T06:15:41;5.35;;;3.30;;
60239;SDS011;46102;39.012;-7.064;2023-04-25T06:17:42;8.45;;;2.97;;
60239;SDS011;46102;39.012;-7.064;2023-04-25T06:19:43;3.13;;;2.42;;
60239;SDS011;46102;39.012;-7.064;2023-04-25T06:21:44;6.78;;;2.80;;
60239;SDS011;46102;39.012;-7.064;2023-04-25T06:23:45;3.85;;;3.10;;
60239;SDS011;46102;39.012;-7.064;2023-04-25T06:25:52;4.18;;;2.60;;
60239;SDS011;46102;39.012;-7.064;2023-04-25T06:27:54;4.72;;;2.78;;
60239;SDS011;46102;39.012;-7.064;2023-04-25T06:29:55;5.38;;;2.97;;
60239;SDS011;46102;39.012;-7.064;2023-04-25T06:31:56;4.88;;;2.72;;
60239;SDS011;46102;39.012;-7.064;2023-04-25T06:33:57;5.65;;;2.92;;
60239;SDS011;46102;39.012;-7.064;2023-04-25T06:36:00;9.20;;;3.60;;
60239;SDS011;46102;39.012;-7.064;2023-04-25T06:38:02;6.18;;;3.10;;
60239;SDS011;46102;39.012;-7.064;2023-04-25T06:40:04;4.78;;;2.65;;
60239;SDS011;46102;39.012;-7.064;2023-04-25T06:42:05;6.85;;;3.38;;
60239;SDS011;46102;39.012;-7.064;2023-04-25T06:44:19;6.43;;;2.75;;
60239;SDS011;46102;39.012;-7.064;2023-04-25T06:46:26;3.92;;;2.90;;
60239;SDS011;46102;39.012;-7.064;2023-04-25T06:48:28;5.53;;;3.20;;
60239;SDS011;46102;39.012;-7.064;2023-04-25T06:50:29;8.05;;;2.85;;
60239;SDS011;46102;39.012;-7.064;2023-04-25T06:52:30;10.07;;;2.90;;
60239;SDS011;46102;39.012;-7.064;2023-04-25T06:54:31;6.50;;;2.90;;
60239;SDS011;46102;39.012;-7.064;2023-04-25T06:56:40;7.65;;;2.88;;
60239;SDS011;46102;39.012;-7.064;2023-04-25T06:58:49;4.68;;;2.70;;
60239;SDS011;46102;39.012;-7.064;2023-04-25T07:00:58;6.15;;;3.15;;
60239;SDS011;46102;39.012;-7.064;2023-04-25T07:03:00;4.78;;;2.58;;
60239;SDS011;46102;39.012;-7.064;2023-04-25T07:05:02;8.15;;;2.97;;
60239;SDS011;46102;39.012;-7.064;2023-04-25T07:07:04;4.10;;;2.53;;
60239;SDS011;46102;39.012;-7.064;2023-04-25T07:09:18;3.88;;;2.50;;
60239;SDS011;46102;39.012;-7.064;2023-04-25T07:11:22;3.35;;;2.58;;
60239;SDS011;46102;39.012;-7.064;2023-04-25T07:13:22;4.40;;;2.40;;
60239;SDS011;46102;39.012;-7.064;2023-04-25T07:15:23;3.33;;;2.13;;
60239;SDS011;46102;39.012;-7.064;2023-04-25T07:17:25;2.95;;;2.30;;
60239;SDS011;46102;39.012;-7.064;2023-04-25T07:19:26;3.78;;;2.53;;
60239;SDS011;46102;39.012;-7.064;2023-04-25T07:21:31;4.63;;;2.22;;
60239;SDS011;46102;39.012;-7.064;2023-04-25T07:23:35;3.67;;;2.40;;
60239;SDS011;46102;39.012;-7.064;2023-04-25T07:25:43;7.68;;;2.67;;
60239;SDS011;46102;39.012;-7.064;2023-04-25T07:27:45;5.10;;;2.60;;
60239;SDS011;46102;39.012;-7.064;2023-04-25T07:29:50;3.10;;;2.10;;
60239;SDS011;46102;39.012;-7.064;2023-04-25T07:31:51;5.50;;;2.35;;
60239;SDS011;46102;39.012;-7.064;2023-04-25T07:33:54;4.43;;;2.25;;
60239;SDS011;46102;39.012;-7.064;2023-04-25T07:35:55;3.30;;;1.95;;
60239;SDS011;46102;39.012;-7.064;2023-04-25T07:37:56;4.20;;;1.73;;
60239;SDS011;46102;39.012;-7.064;2023-04-25T07:39:58;3.28;;;1.63;;
60239;SDS011;46102;39.012;-7.064;2023-04-25T07:41:59;2.90;;;1.60;;
60239;SDS011;46102;39.012;-7.064;2023-04-25T07:44:03;4.03;;;2.00;;
60239;SDS011;46102;39.012;-7.064;2023-04-25T07:46:05;5.30;;;1.98;;
60239;SDS011;46102;39.012;-7.064;2023-04-25T07:48:08;4.07;;;2.10;;
60239;SDS011;46102;39.012;-7.064;2023-04-25T07:50:13;6.63;;;2.00;;
60239;SDS011;46102;39.012;-7.064;2023-04-25T07:52:14;2.88;;;1.85;;
60239;SDS011;46102;39.012;-7.064;2023-04-25T07:54:21;3.75;;;1.77;;
60239;SDS011;46102;39.012;-7.064;2023-04-25T07:56:28;5.05;;;2.25;;
60239;SDS011;46102;39.012;-7.064;2023-04-25T07:58:29;7.45;;;1.77;;
60239;SDS011;46102;39.012;-7.064;2023-04-25T08:00:34;3.75;;;2.35;;
60239;SDS011;46102;39.012;-7.064;2023-04-25T08:02:57;7.20;;;2.83;;
60239;SDS011;46102;39.012;-7.064;2023-04-25T08:04:57;3.88;;;1.98;;
60239;SDS011;46102;39.012;-7.064;2023-04-25T08:06:58;7.50;;;2.33;;
60239;SDS011;46102;39.012;-7.064;2023-04-25T08:09:05;4.53;;;1.83;;
60239;SDS011;46102;39.012;-7.064;2023-04-25T08:11:11;2.95;;;1.58;;
60239;SDS011;46102;39.012;-7.064;2023-04-25T08:13:12;2.67;;;1.67;;
60239;SDS011;46102;39.012;-7.064;2023-04-25T08:15:15;3.17;;;1.92;;
60239;SDS011;46102;39.012;-7.064;2023-04-25T08:17:17;3.55;;;1.77;;
60239;SDS011;46102;39.012;-7.064;2023-04-25T08:19:19;2.40;;;1.65;;
60239;SDS011;46102;39.012;-7.064;2023-04-25T08:21:20;4.47;;;1.88;;
60239;SDS011;46102;39.012;-7.064;2023-04-25T08:23:22;10.38;;;2.20;;
60239;SDS011;46102;39.012;-7.064;2023-04-25T08:25:35;4.65;;;1.80;;
60239;SDS011;46102;39.012;-7.064;2023-04-25T08:27:36;4.10;;;1.98;;
60239;SDS011;46102;39.012;-7.064;2023-04-25T08:29:37;2.78;;;2.13;;
60239;SDS011;46102;39.012;-7.064;2023-04-25T08:31:38;3.78;;;2.08;;
60239;SDS011;46102;39.012;-7.064;2023-04-25T08:33:39;3.47;;;1.65;;
60239;SDS011;46102;39.012;-7.064;2023-04-25T08:35:50;1.45;;;1.25;;
60239;SDS011;46102;39.012;-7.064;2023-04-25T08:37:51;3.17;;;1.83;;
60239;SDS011;46102;39.012;-7.064;2023-04-25T08:39:53;2.20;;;1.75;;
60239;SDS011;46102;39.012;-7.064;2023-04-25T08:42:15;2.97;;;1.77;;
60239;SDS011;46102;39.012;-7.064;2023-04-25T08:44:16;2.28;;;1.20;;
60239;SDS011;46102;39.012;-7.064;2023-04-25T08:46:17;2.67;;;1.67;;
60239;SDS011;46102;39.012;-7.064;2023-04-25T08:48:35;3.92;;;1.52;;
60239;SDS011;46102;39.012;-7.064;2023-04-25T08:50:45;2.87;;;1.70;;
60239;SDS011;46102;39.012;-7.064;2023-04-25T08:52:48;1.48;;;1.38;;
60239;SDS011;46102;39.012;-7.064;2023-04-25T08:54:52;2.97;;;1.60;;
60239;SDS011;46102;39.012;-7.064;2023-04-25T08:56:55;3.63;;;1.83;;
60239;SDS011;46102;39.012;-7.064;2023-04-25T08:58:58;1.20;;;1.10;;
60239;SDS011;46102;39.012;-7.064;2023-04-25T09:01:01;3.42;;;1.38;;
60239;SDS011;46102;39.012;-7.064;2023-04-25T09:03:06;1.75;;;1.20;;
60239;SDS011;46102;39.012;-7.064;2023-04-25T09:05:07;2.95;;;1.50;;
60239;SDS011;46102;39.012;-7.064;2023-04-25T09:07:10;2.92;;;1.30;;
60239;SDS011;46102;39.012;-7.064;2023-04-25T09:09:12;1.38;;;1.25;;
60239;SDS011;46102;39.012;-7.064;2023-04-25T09:11:14;3.50;;;1.48;;
60239;SDS011;46102;39.012;-7.064;2023-04-25T09:13:23;3.40;;;1.33;;
60239;SDS011;46102;39.012;-7.064;2023-04-25T09:15:48;1.10;;;1.00;;
60239;SDS011;46102;39.012;-7.064;2023-04-25T09:18:11;1.90;;;1.02;;
60239;SDS011;46102;39.012;-7.064;2023-04-25T09:20:16;4.07;;;1.10;;
60239;SDS011;46102;39.012;-7.064;2023-04-25T09:22:17;1.27;;;1.10;;
60239;SDS011;46102;39.012;-7.064;2023-04-25T09:26:32;1.08;;;0.70;;
60239;SDS011;46102;39.012;-7.064;2023-04-25T09:28:35;1.77;;;1.00;;
60239;SDS011;46102;39.012;-7.064;2023-04-25T09:30:38;4.20;;;1.27;;
60239;SDS011;46102;39.012;-7.064;2023-04-25T09:32:57;1.55;;;0.90;;
60239;SDS011;46102;39.012;-7.064;2023-04-25T09:35:04;1.10;;;0.90;;
60239;SDS011;46102;39.012;-7.064;2023-04-25T09:37:06;2.67;;;1.42;;
60239;SDS011;46102;39.012;-7.064;2023-04-25T09:39:28;2.03;;;1.10;;
60239;SDS011;46102;39.012;-7.064;2023-04-25T09:41:39;3.70;;;1.00;;
60239;SDS011;46102;39.012;-7.064;2023-04-25T09:43:41;1.70;;;0.70;;
60239;SDS011;46102;39.012;-7.064;2023-04-25T09:45:47;2.15;;;1.00;;
60239;SDS011;46102;39.012;-7.064;2023-04-25T09:47:50;1.10;;;0.65;;
60239;SDS011;46102;39.012;-7.064;2023-04-25T09:49:59;0.70;;;0.70;;
60239;SDS011;46102;39.012;-7.064;2023-04-25T09:52:00;2.55;;;1.00;;
60239;SDS011;46102;39.012;-7.064;2023-04-25T09:54:07;0.68;;;0.60;;
60239;SDS011;46102;39.012;-7.064;2023-04-25T09:56:11;3.40;;;0.80;;
60239;SDS011;46102;39.012;-7.064;2023-04-25T09:58:13;1.42;;;0.82;;
60239;SDS011;46102;39.012;-7.064;2023-04-25T10:00:15;1.45;;;0.98;;
60239;SDS011;46102;39.012;-7.064;2023-04-25T10:02:18;2.92;;;1.20;;
60239;SDS011;46102;39.012;-7.064;2023-04-25T10:04:25;0.98;;;0.63;;
60239;SDS011;46102;39.012;-7.064;2023-04-25T10:06:39;2.53;;;0.70;;
60239;SDS011;46102;39.012;-7.064;2023-04-25T10:08:43;1.40;;;0.85;;
60239;SDS011;46102;39.012;-7.064;2023-04-25T10:10:45;1.17;;;0.60;;
60239;SDS011;46102;39.012;-7.064;2023-04-25T10:12:48;1.98;;;1.15;;
60239;SDS011;46102;39.012;-7.064;2023-04-25T10:14:49;0.95;;;0.70;;
60239;SDS011;46102;39.012;-7.064;2023-04-25T10:16:50;3.50;;;0.93;;
60239;SDS011;46102;39.012;-7.064;2023-04-25T10:18:53;1.17;;;0.95;;
60239;SDS011;46102;39.012;-7.064;2023-04-25T10:20:55;0.88;;;0.65;;
60239;SDS011;46102;39.012;-7.064;2023-04-25T10:23:02;0.40;;;0.40;;
60239;SDS011;46102;39.012;-7.064;2023-04-25T10:25:09;2.63;;;1.00;;
60239;SDS011;46102;39.012;-7.064;2023-04-25T10:27:11;1.27;;;0.75;;
60239;SDS011;46102;39.012;-7.064;2023-04-25T10:29:12;5.22;;;4.20;;
60239;SDS011;46102;39.012;-7.064;2023-04-25T10:31:23;1.30;;;0.95;;
60239;SDS011;46102;39.012;-7.064;2023-04-25T10:33:32;0.60;;;0.60;;
60239;SDS011;46102;39.012;-7.064;2023-04-25T10:35:33;1.65;;;0.43;;
60239;SDS011;46102;39.012;-7.064;2023-04-25T10:37:35;1.67;;;0.80;;
60239;SDS011;46102;39.012;-7.064;2023-04-25T10:39:36;0.55;;;0.50;;
60239;SDS011;46102;39.012;-7.064;2023-04-25T10:41:48;0.60;;;0.45;;
60239;SDS011;46102;39.012;-7.064;2023-04-25T10:44:01;0.80;;;0.50;;
60239;SDS011;46102;39.012;-7.064;2023-04-25T10:48:27;1.67;;;0.60;;
60239;SDS011;46102;39.012;-7.064;2023-04-25T10:50:36;0.60;;;0.40;;
60239;SDS011;46102;39.012;-7.064;2023-04-25T10:52:38;0.50;;;0.50;;
60239;SDS011;46102;39.012;-7.064;2023-04-25T10:54:42;0.40;;;0.30;;
60239;SDS011;46102;39.012;-7.064;2023-04-25T10:56:48;0.45;;;0.45;;
60239;SDS011;46102;39.012;-7.064;2023-04-25T10:58:51;1.45;;;0.50;;
60239;SDS011;46102;39.012;-7.064;2023-04-25T11:00:51;1.45;;;0.35;;
60239;SDS011;46102;39.012;-7.064;2023-04-25T11:02:53;0.60;;;0.55;;
60239;SDS011;46102;39.012;-7.064;2023-04-25T11:04:58;0.60;;;0.35;;
60239;SDS011;46102;39.012;-7.064;2023-04-25T11:09:19;4.03;;;1.27;;
60239;SDS011;46102;39.012;-7.064;2023-04-25T11:11:24;2.60;;;0.65;;
60239;SDS011;46102;39.012;-7.064;2023-04-25T11:13:28;1.45;;;0.50;;
60239;SDS011;46102;39.012;-7.064;2023-04-25T11:15:30;2.03;;;0.50;;
60239;SDS011;46102;39.012;-7.064;2023-04-25T11:17:31;1.20;;;0.90;;
60239;SDS011;46102;39.012;-7.064;2023-04-25T11:19:32;1.05;;;0.95;;
60239;SDS011;46102;39.012;-7.064;2023-04-25T11:21:32;2.03;;;0.30;;
60239;SDS011;46102;39.012;-7.064;2023-04-25T11:23:33;0.85;;;0.63;;
60239;SDS011;46102;39.012;-7.064;2023-04-25T11:25:34;0.70;;;0.70;;
60239;SDS011;46102;39.012;-7.064;2023-04-25T11:27:51;2.17;;;0.52;;
60239;SDS011;46102;39.012;-7.064;2023-04-25T11:29:58;0.68;;;0.45;;
60239;SDS011;46102;39.012;-7.064;2023-04-25T11:31:59;0.70;;;0.60;;
60239;SDS011;46102;39.012;-7.064;2023-04-25T11:34:01;0.60;;;0.40;;
60239;SDS011;46102;39.012;-7.064;2023-04-25T11:36:02;0.47;;;0.47;;
60239;SDS011;46102;39.012;-7.064;2023-04-25T11:38:03;2.22;;;0.70;;
60239;SDS011;46102;39.012;-7.064;2023-04-25T11:40:04;3.63;;;0.70;;
60239;SDS011;46102;39.012;-7.064;2023-04-25T11:42:09;1.10;;;0.60;;
60239;SDS011;46102;39.012;-7.064;2023-04-25T11:44:10;0.50;;;0.47;;
60239;SDS011;46102;39.012;-7.064;2023-04-25T11:46:10;3.28;;;0.82;;
60239;SDS011;46102;39.012;-7.064;2023-04-25T11:48:11;0.63;;;0.63;;
60239;SDS011;46102;39.012;-7.064;2023-04-25T11:50:12;0.50;;;0.50;;
60239;SDS011;46102;39.012;-7.064;2023-04-25T11:52:14;0.95;;;0.65;;
60239;SDS011;46102;39.012;-7.064;2023-04-25T11:54:15;0.70;;;0.52;;
60239;SDS011;46102;39.012;-7.064;2023-04-25T11:56:16;1.95;;;0.63;;
60239;SDS011;46102;39.012;-7.064;2023-04-25T11:58:17;0.60;;;0.60;;
60239;SDS011;46102;39.012;-7.064;2023-04-25T12:00:20;0.85;;;0.60;;
60239;SDS011;46102;39.012;-7.064;2023-04-25T12:02:24;0.80;;;0.63;;
60239;SDS011;46102;39.012;-7.064;2023-04-25T12:04:29;1.40;;;0.50;;
60239;SDS011;46102;39.012;-7.064;2023-04-25T12:06:32;0.60;;;0.60;;
60239;SDS011;46102;39.012;-7.064;2023-04-25T12:08:37;1.33;;;0.60;;
60239;SDS011;46102;39.012;-7.064;2023-04-25T12:10:38;0.80;;;0.55;;
60239;SDS011;46102;39.012;-7.064;2023-04-25T12:12:41;1.67;;;0.70;;
60239;SDS011;46102;39.012;-7.064;2023-04-25T12:14:47;3.13;;;1.05;;
60239;SDS011;46102;39.012;-7.064;2023-04-25T12:16:51;1.30;;;0.90;;
60239;SDS011;46102;39.012;-7.064;2023-04-25T12:18:52;2.05;;;0.88;;
60239;SDS011;46102;39.012;-7.064;2023-04-25T12:33:30;1.98;;;0.70;;
60239;SDS011;46102;39.012;-7.064;2023-04-25T12:35:32;0.82;;;0.80;;
60239;SDS011;46102;39.012;-7.064;2023-04-25T12:37:33;0.93;;;0.80;;
60239;SDS011;46102;39.012;-7.064;2023-04-25T12:39:34;0.90;;;0.90;;